X  Schlie├čen METAR Luftfahrt Wetterdaten     LIPX Verona-Villafranca Valerio Catullo Airport
Temperatur
19°C Temperatur
14°C Taupunkt
73% Feuchtigkeit



Wind
5 KM/S
3 MPS
1 M/S
3 KTS



350°
N
Aktuelle Wetterlage

Klar Klar
Luftdruck 1025.06 (hPa) - 30.27 (inHg)
Sichtweite 6 (Meile) - 9.7 (Km)
Flughafen
Flughafen Code LIPX

Position : Verona-Villafranca Valerio Catullo Airport
Entfernung: 0 (Km)

Metar:
LIPX 132050Z 35003KT CAVOK 19/14 Q1025

Zeit: 13-04-2024 20:50 CEST